sensor_id;sensor_type;location;lat;lon;timestamp;P1;durP1;ratioP1;P2;durP2;ratioP2
9773;SDS011;4926;42.670;23.316;2023-04-29T00:01:53;15.48;;;9.85;;
9773;SDS011;4926;42.670;23.316;2023-04-29T00:04:23;17.48;;;10.30;;
9773;SDS011;4926;42.670;23.316;2023-04-29T00:06:50;16.40;;;10.32;;
9773;SDS011;4926;42.670;23.316;2023-04-29T00:09:17;16.75;;;10.73;;
9773;SDS011;4926;42.670;23.316;2023-04-29T00:11:48;13.20;;;9.85;;
9773;SDS011;4926;42.670;23.316;2023-04-29T00:14:15;22.90;;;10.38;;
9773;SDS011;4926;42.670;23.316;2023-04-29T00:16:42;17.20;;;9.50;;
9773;SDS011;4926;42.670;23.316;2023-04-29T00:19:10;17.80;;;10.20;;
9773;SDS011;4926;42.670;23.316;2023-04-29T00:21:38;12.43;;;9.32;;
9773;SDS011;4926;42.670;23.316;2023-04-29T00:24:05;14.30;;;8.57;;
9773;SDS011;4926;42.670;23.316;2023-04-29T00:26:32;14.15;;;8.85;;
9773;SDS011;4926;42.670;23.316;2023-04-29T00:29:03;13.05;;;8.88;;
9773;SDS011;4926;42.670;23.316;2023-04-29T00:31:29;16.10;;;8.82;;
9773;SDS011;4926;42.670;23.316;2023-04-29T00:33:56;17.08;;;9.10;;
9773;SDS011;4926;42.670;23.316;2023-04-29T00:36:23;16.25;;;9.40;;
9773;SDS011;4926;42.670;23.316;2023-04-29T00:38:50;15.07;;;9.65;;
9773;SDS011;4926;42.670;23.316;2023-04-29T00:41:16;14.02;;;9.55;;
9773;SDS011;4926;42.670;23.316;2023-04-29T00:43:43;14.57;;;9.65;;
9773;SDS011;4926;42.670;23.316;2023-04-29T00:46:11;16.05;;;10.02;;
9773;SDS011;4926;42.670;23.316;2023-04-29T00:48:41;14.98;;;9.55;;
9773;SDS011;4926;42.670;23.316;2023-04-29T00:51:10;15.50;;;9.73;;
9773;SDS011;4926;42.670;23.316;2023-04-29T00:53:39;12.68;;;9.48;;
9773;SDS011;4926;42.670;23.316;2023-04-29T00:56:10;16.98;;;9.95;;
9773;SDS011;4926;42.670;23.316;2023-04-29T00:58:39;15.25;;;9.93;;
9773;SDS011;4926;42.670;23.316;2023-04-29T01:01:05;14.95;;;8.50;;
9773;SDS011;4926;42.670;23.316;2023-04-29T01:03:33;14.18;;;8.90;;
9773;SDS011;4926;42.670;23.316;2023-04-29T01:06:04;12.82;;;8.70;;
9773;SDS011;4926;42.670;23.316;2023-04-29T01:08:43;12.88;;;8.68;;
9773;SDS011;4926;42.670;23.316;2023-04-29T01:11:23;15.80;;;8.32;;
9773;SDS011;4926;42.670;23.316;2023-04-29T01:13:59;15.73;;;8.30;;
9773;SDS011;4926;42.670;23.316;2023-04-29T01:16:29;11.82;;;7.50;;
9773;SDS011;4926;42.670;23.316;2023-04-29T01:19:05;14.63;;;8.13;;
9773;SDS011;4926;42.670;23.316;2023-04-29T01:21:45;13.50;;;7.70;;
9773;SDS011;4926;42.670;23.316;2023-04-29T01:24:15;16.15;;;8.00;;
9773;SDS011;4926;42.670;23.316;2023-04-29T01:26:42;15.55;;;8.38;;
9773;SDS011;4926;42.670;23.316;2023-04-29T01:29:18;15.23;;;8.23;;
9773;SDS011;4926;42.670;23.316;2023-04-29T01:31:55;13.55;;;9.40;;
9773;SDS011;4926;42.670;23.316;2023-04-29T01:34:29;14.27;;;8.70;;
9773;SDS011;4926;42.670;23.316;2023-04-29T01:37:06;12.35;;;8.25;;
9773;SDS011;4926;42.670;23.316;2023-04-29T01:39:45;11.38;;;7.95;;
9773;SDS011;4926;42.670;23.316;2023-04-29T01:42:24;15.88;;;8.85;;
9773;SDS011;4926;42.670;23.316;2023-04-29T01:44:59;14.07;;;8.35;;
9773;SDS011;4926;42.670;23.316;2023-04-29T01:47:31;13.00;;;7.95;;
9773;SDS011;4926;42.670;23.316;2023-04-29T01:49:58;15.80;;;8.25;;
9773;SDS011;4926;42.670;23.316;2023-04-29T01:52:26;11.85;;;7.80;;
9773;SDS011;4926;42.670;23.316;2023-04-29T01:54:55;12.10;;;8.45;;
9773;SDS011;4926;42.670;23.316;2023-04-29T01:57:21;11.18;;;7.43;;
9773;SDS011;4926;42.670;23.316;2023-04-29T01:59:51;13.23;;;8.52;;
9773;SDS011;4926;42.670;23.316;2023-04-29T02:02:21;12.50;;;7.53;;
9773;SDS011;4926;42.670;23.316;2023-04-29T02:04:49;10.95;;;6.95;;
9773;SDS011;4926;42.670;23.316;2023-04-29T02:07:16;13.48;;;7.03;;
9773;SDS011;4926;42.670;23.316;2023-04-29T02:09:42;10.05;;;7.10;;
9773;SDS011;4926;42.670;23.316;2023-04-29T02:12:12;10.43;;;7.07;;
9773;SDS011;4926;42.670;23.316;2023-04-29T02:14:39;11.40;;;7.05;;
9773;SDS011;4926;42.670;23.316;2023-04-29T02:17:06;14.43;;;7.00;;
9773;SDS011;4926;42.670;23.316;2023-04-29T02:19:35;11.23;;;6.95;;
9773;SDS011;4926;42.670;23.316;2023-04-29T02:22:02;9.75;;;7.00;;
9773;SDS011;4926;42.670;23.316;2023-04-29T02:24:34;10.30;;;7.68;;
9773;SDS011;4926;42.670;23.316;2023-04-29T02:27:01;14.68;;;7.22;;
9773;SDS011;4926;42.670;23.316;2023-04-29T02:29:31;8.20;;;6.57;;
9773;SDS011;4926;42.670;23.316;2023-04-29T02:31:58;10.90;;;6.70;;
9773;SDS011;4926;42.670;23.316;2023-04-29T02:34:30;11.10;;;6.90;;
9773;SDS011;4926;42.670;23.316;2023-04-29T02:36:56;10.40;;;7.00;;
9773;SDS011;4926;42.670;23.316;2023-04-29T02:39:23;8.60;;;6.30;;
9773;SDS011;4926;42.670;23.316;2023-04-29T02:41:52;9.50;;;6.22;;
9773;SDS011;4926;42.670;23.316;2023-04-29T02:44:19;9.57;;;6.40;;
9773;SDS011;4926;42.670;23.316;2023-04-29T02:46:50;8.95;;;6.07;;
9773;SDS011;4926;42.670;23.316;2023-04-29T02:49:26;12.18;;;6.47;;
9773;SDS011;4926;42.670;23.316;2023-04-29T02:51:53;12.25;;;6.60;;
9773;SDS011;4926;42.670;23.316;2023-04-29T02:54:23;9.73;;;6.18;;
9773;SDS011;4926;42.670;23.316;2023-04-29T02:59:32;10.02;;;6.15;;
9773;SDS011;4926;42.670;23.316;2023-04-29T03:02:00;10.50;;;6.18;;
9773;SDS011;4926;42.670;23.316;2023-04-29T03:04:29;8.73;;;5.53;;
9773;SDS011;4926;42.670;23.316;2023-04-29T03:06:56;13.25;;;6.63;;
9773;SDS011;4926;42.670;23.316;2023-04-29T03:09:28;8.32;;;5.97;;
9773;SDS011;4926;42.670;23.316;2023-04-29T03:11:58;9.52;;;6.05;;
9773;SDS011;4926;42.670;23.316;2023-04-29T03:14:29;9.45;;;6.30;;
9773;SDS011;4926;42.670;23.316;2023-04-29T03:17:00;10.05;;;6.20;;
9773;SDS011;4926;42.670;23.316;2023-04-29T03:19:26;11.18;;;6.43;;
9773;SDS011;4926;42.670;23.316;2023-04-29T03:21:58;10.68;;;7.13;;
9773;SDS011;4926;42.670;23.316;2023-04-29T03:24:27;11.15;;;6.53;;
9773;SDS011;4926;42.670;23.316;2023-04-29T03:26:54;9.98;;;5.90;;
9773;SDS011;4926;42.670;23.316;2023-04-29T03:29:20;12.45;;;6.97;;
9773;SDS011;4926;42.670;23.316;2023-04-29T03:31:47;11.02;;;6.68;;
9773;SDS011;4926;42.670;23.316;2023-04-29T03:34:15;8.48;;;6.40;;
9773;SDS011;4926;42.670;23.316;2023-04-29T03:36:42;11.43;;;6.05;;
9773;SDS011;4926;42.670;23.316;2023-04-29T03:39:08;15.48;;;6.63;;
9773;SDS011;4926;42.670;23.316;2023-04-29T03:41:35;9.98;;;6.65;;
9773;SDS011;4926;42.670;23.316;2023-04-29T03:44:02;11.65;;;6.88;;
9773;SDS011;4926;42.670;23.316;2023-04-29T03:46:29;11.32;;;6.70;;
9773;SDS011;4926;42.670;23.316;2023-04-29T03:48:56;8.40;;;6.65;;
9773;SDS011;4926;42.670;23.316;2023-04-29T03:51:26;8.80;;;5.80;;
9773;SDS011;4926;42.670;23.316;2023-04-29T03:53:54;11.18;;;5.68;;
9773;SDS011;4926;42.670;23.316;2023-04-29T03:56:21;9.15;;;5.53;;
9773;SDS011;4926;42.670;23.316;2023-04-29T03:58:50;8.70;;;5.93;;
9773;SDS011;4926;42.670;23.316;2023-04-29T04:01:17;11.88;;;7.00;;
9773;SDS011;4926;42.670;23.316;2023-04-29T04:03:43;12.18;;;6.30;;
9773;SDS011;4926;42.670;23.316;2023-04-29T04:06:10;13.20;;;7.22;;
9773;SDS011;4926;42.670;23.316;2023-04-29T04:08:38;10.05;;;6.50;;
9773;SDS011;4926;42.670;23.316;2023-04-29T04:11:05;15.90;;;7.63;;
9773;SDS011;4926;42.670;23.316;2023-04-29T04:13:32;10.27;;;6.82;;
9773;SDS011;4926;42.670;23.316;2023-04-29T04:15:59;15.30;;;7.28;;
9773;SDS011;4926;42.670;23.316;2023-04-29T04:18:26;10.73;;;7.07;;
9773;SDS011;4926;42.670;23.316;2023-04-29T04:20:52;13.27;;;7.13;;
9773;SDS011;4926;42.670;23.316;2023-04-29T04:23:19;8.68;;;7.00;;
9773;SDS011;4926;42.670;23.316;2023-04-29T04:25:48;15.05;;;7.78;;
9773;SDS011;4926;42.670;23.316;2023-04-29T04:28:17;12.30;;;7.68;;
9773;SDS011;4926;42.670;23.316;2023-04-29T04:30:48;15.85;;;6.60;;
9773;SDS011;4926;42.670;23.316;2023-04-29T04:33:15;8.65;;;6.38;;
9773;SDS011;4926;42.670;23.316;2023-04-29T04:35:41;8.68;;;6.95;;
9773;SDS011;4926;42.670;23.316;2023-04-29T04:38:09;9.07;;;6.85;;
9773;SDS011;4926;42.670;23.316;2023-04-29T04:40:39;8.95;;;6.97;;
9773;SDS011;4926;42.670;23.316;2023-04-29T04:43:07;9.45;;;6.30;;
9773;SDS011;4926;42.670;23.316;2023-04-29T04:45:34;14.88;;;7.10;;
9773;SDS011;4926;42.670;23.316;2023-04-29T04:48:03;11.15;;;6.60;;
9773;SDS011;4926;42.670;23.316;2023-04-29T04:50:30;9.68;;;6.45;;
9773;SDS011;4926;42.670;23.316;2023-04-29T04:52:57;9.68;;;6.38;;
9773;SDS011;4926;42.670;23.316;2023-04-29T04:55:24;11.05;;;7.00;;
9773;SDS011;4926;42.670;23.316;2023-04-29T04:57:51;9.30;;;6.70;;
9773;SDS011;4926;42.670;23.316;2023-04-29T05:00:22;9.30;;;6.70;;
9773;SDS011;4926;42.670;23.316;2023-04-29T05:02:48;11.18;;;6.35;;
9773;SDS011;4926;42.670;23.316;2023-04-29T05:05:19;10.60;;;7.57;;
9773;SDS011;4926;42.670;23.316;2023-04-29T05:07:45;8.20;;;6.97;;
9773;SDS011;4926;42.670;23.316;2023-04-29T05:10:12;10.77;;;6.50;;
9773;SDS011;4926;42.670;23.316;2023-04-29T05:12:39;11.75;;;6.22;;
9773;SDS011;4926;42.670;23.316;2023-04-29T05:15:07;7.97;;;6.43;;
9773;SDS011;4926;42.670;23.316;2023-04-29T05:17:36;12.50;;;6.38;;
9773;SDS011;4926;42.670;23.316;2023-04-29T05:20:04;12.18;;;7.30;;
9773;SDS011;4926;42.670;23.316;2023-04-29T05:22:34;12.18;;;6.82;;
9773;SDS011;4926;42.670;23.316;2023-04-29T05:25:01;9.20;;;6.72;;
9773;SDS011;4926;42.670;23.316;2023-04-29T05:27:28;9.48;;;6.18;;
9773;SDS011;4926;42.670;23.316;2023-04-29T05:29:54;10.00;;;6.32;;
9773;SDS011;4926;42.670;23.316;2023-04-29T05:32:23;8.07;;;6.35;;
9773;SDS011;4926;42.670;23.316;2023-04-29T05:34:51;11.18;;;6.65;;
9773;SDS011;4926;42.670;23.316;2023-04-29T05:37:18;9.18;;;6.70;;
9773;SDS011;4926;42.670;23.316;2023-04-29T05:39:45;9.98;;;6.38;;
9773;SDS011;4926;42.670;23.316;2023-04-29T05:42:11;10.68;;;6.47;;
9773;SDS011;4926;42.670;23.316;2023-04-29T05:44:38;7.93;;;6.22;;
9773;SDS011;4926;42.670;23.316;2023-04-29T05:47:07;7.65;;;6.07;;
9773;SDS011;4926;42.670;23.316;2023-04-29T05:49:34;11.50;;;6.00;;
9773;SDS011;4926;42.670;23.316;2023-04-29T05:52:05;10.02;;;5.88;;
9773;SDS011;4926;42.670;23.316;2023-04-29T05:54:37;8.02;;;6.10;;
9773;SDS011;4926;42.670;23.316;2023-04-29T05:57:04;12.43;;;6.30;;
9773;SDS011;4926;42.670;23.316;2023-04-29T05:59:30;13.30;;;6.70;;
9773;SDS011;4926;42.670;23.316;2023-04-29T06:01:58;13.50;;;7.10;;
9773;SDS011;4926;42.670;23.316;2023-04-29T06:04:25;12.50;;;7.43;;
9773;SDS011;4926;42.670;23.316;2023-04-29T06:06:52;9.07;;;6.95;;
9773;SDS011;4926;42.670;23.316;2023-04-29T06:09:22;11.93;;;6.40;;
9773;SDS011;4926;42.670;23.316;2023-04-29T06:11:49;9.55;;;7.28;;
9773;SDS011;4926;42.670;23.316;2023-04-29T06:14:16;10.60;;;7.15;;
9773;SDS011;4926;42.670;23.316;2023-04-29T06:16:45;11.43;;;6.88;;
9773;SDS011;4926;42.670;23.316;2023-04-29T06:19:13;13.13;;;6.97;;
9773;SDS011;4926;42.670;23.316;2023-04-29T06:21:39;10.43;;;6.90;;
9773;SDS011;4926;42.670;23.316;2023-04-29T06:24:06;10.98;;;6.65;;
9773;SDS011;4926;42.670;23.316;2023-04-29T06:26:34;10.32;;;7.15;;
9773;SDS011;4926;42.670;23.316;2023-04-29T06:29:01;9.95;;;7.10;;
9773;SDS011;4926;42.670;23.316;2023-04-29T06:31:30;10.90;;;7.20;;
9773;SDS011;4926;42.670;23.316;2023-04-29T06:33:59;12.23;;;6.75;;
9773;SDS011;4926;42.670;23.316;2023-04-29T06:36:26;12.50;;;7.03;;
9773;SDS011;4926;42.670;23.316;2023-04-29T06:38:53;11.65;;;7.60;;
9773;SDS011;4926;42.670;23.316;2023-04-29T06:41:22;13.82;;;7.38;;
9773;SDS011;4926;42.670;23.316;2023-04-29T06:43:53;8.70;;;7.28;;
9773;SDS011;4926;42.670;23.316;2023-04-29T06:46:20;11.32;;;7.20;;
9773;SDS011;4926;42.670;23.316;2023-04-29T06:48:47;8.77;;;7.00;;
9773;SDS011;4926;42.670;23.316;2023-04-29T06:51:13;12.48;;;7.97;;
9773;SDS011;4926;42.670;23.316;2023-04-29T06:53:40;13.80;;;8.40;;
9773;SDS011;4926;42.670;23.316;2023-04-29T06:56:07;14.70;;;8.57;;
9773;SDS011;4926;42.670;23.316;2023-04-29T06:58:33;13.05;;;7.47;;
9773;SDS011;4926;42.670;23.316;2023-04-29T07:01:01;16.13;;;8.02;;
9773;SDS011;4926;42.670;23.316;2023-04-29T07:03:28;10.00;;;7.18;;
9773;SDS011;4926;42.670;23.316;2023-04-29T07:05:55;10.35;;;7.45;;
9773;SDS011;4926;42.670;23.316;2023-04-29T07:08:22;10.80;;;7.00;;
9773;SDS011;4926;42.670;23.316;2023-04-29T07:10:54;11.40;;;6.90;;
9773;SDS011;4926;42.670;23.316;2023-04-29T07:13:21;9.73;;;6.95;;
9773;SDS011;4926;42.670;23.316;2023-04-29T07:15:47;9.35;;;6.78;;
9773;SDS011;4926;42.670;23.316;2023-04-29T07:18:17;10.88;;;6.50;;
9773;SDS011;4926;42.670;23.316;2023-04-29T07:20:44;10.07;;;6.75;;
9773;SDS011;4926;42.670;23.316;2023-04-29T07:23:12;9.55;;;6.72;;
9773;SDS011;4926;42.670;23.316;2023-04-29T07:25:38;11.77;;;6.75;;
9773;SDS011;4926;42.670;23.316;2023-04-29T07:28:05;9.32;;;6.28;;
9773;SDS011;4926;42.670;23.316;2023-04-29T07:30:32;10.07;;;6.10;;
9773;SDS011;4926;42.670;23.316;2023-04-29T07:33:02;8.55;;;6.38;;
9773;SDS011;4926;42.670;23.316;2023-04-29T07:35:30;10.00;;;6.15;;
9773;SDS011;4926;42.670;23.316;2023-04-29T07:38:00;8.35;;;6.22;;
9773;SDS011;4926;42.670;23.316;2023-04-29T07:40:27;10.23;;;6.88;;
9773;SDS011;4926;42.670;23.316;2023-04-29T07:42:53;6.68;;;5.97;;
9773;SDS011;4926;42.670;23.316;2023-04-29T07:45:23;12.27;;;6.20;;
9773;SDS011;4926;42.670;23.316;2023-04-29T07:47:49;11.73;;;7.22;;
9773;SDS011;4926;42.670;23.316;2023-04-29T07:50:16;9.77;;;6.90;;
9773;SDS011;4926;42.670;23.316;2023-04-29T07:52:44;7.97;;;6.13;;
9773;SDS011;4926;42.670;23.316;2023-04-29T07:55:11;7.97;;;6.10;;
9773;SDS011;4926;42.670;23.316;2023-04-29T07:57:37;10.23;;;7.10;;
9773;SDS011;4926;42.670;23.316;2023-04-29T08:00:05;7.38;;;5.57;;
9773;SDS011;4926;42.670;23.316;2023-04-29T08:02:32;8.77;;;5.97;;
9773;SDS011;4926;42.670;23.316;2023-04-29T08:04:59;9.82;;;6.10;;
9773;SDS011;4926;42.670;23.316;2023-04-29T08:07:26;11.60;;;6.60;;
9773;SDS011;4926;42.670;23.316;2023-04-29T08:09:54;11.95;;;6.82;;
9773;SDS011;4926;42.670;23.316;2023-04-29T08:12:22;14.38;;;6.68;;
9773;SDS011;4926;42.670;23.316;2023-04-29T08:14:52;7.07;;;6.28;;
9773;SDS011;4926;42.670;23.316;2023-04-29T08:17:18;9.93;;;6.07;;
9773;SDS011;4926;42.670;23.316;2023-04-29T08:19:48;9.82;;;5.85;;
9773;SDS011;4926;42.670;23.316;2023-04-29T08:22:17;8.95;;;5.90;;
9773;SDS011;4926;42.670;23.316;2023-04-29T08:24:43;7.78;;;5.93;;
9773;SDS011;4926;42.670;23.316;2023-04-29T08:27:11;6.65;;;5.25;;
9773;SDS011;4926;42.670;23.316;2023-04-29T08:29:39;10.82;;;6.03;;
9773;SDS011;4926;42.670;23.316;2023-04-29T08:32:08;14.07;;;5.68;;
9773;SDS011;4926;42.670;23.316;2023-04-29T08:34:35;6.85;;;5.35;;
9773;SDS011;4926;42.670;23.316;2023-04-29T08:37:02;7.43;;;5.45;;
9773;SDS011;4926;42.670;23.316;2023-04-29T08:39:28;7.32;;;5.03;;
9773;SDS011;4926;42.670;23.316;2023-04-29T08:41:56;6.95;;;5.05;;
9773;SDS011;4926;42.670;23.316;2023-04-29T08:44:25;8.85;;;5.35;;
9773;SDS011;4926;42.670;23.316;2023-04-29T08:46:58;9.73;;;5.32;;
9773;SDS011;4926;42.670;23.316;2023-04-29T08:49:26;6.95;;;4.80;;
9773;SDS011;4926;42.670;23.316;2023-04-29T08:51:55;8.88;;;4.90;;
9773;SDS011;4926;42.670;23.316;2023-04-29T08:54:22;8.00;;;4.45;;
9773;SDS011;4926;42.670;23.316;2023-04-29T08:56:49;7.13;;;5.13;;
9773;SDS011;4926;42.670;23.316;2023-04-29T08:59:28;7.88;;;4.68;;
9773;SDS011;4926;42.670;23.316;2023-04-29T09:01:55;5.35;;;4.60;;
9773;SDS011;4926;42.670;23.316;2023-04-29T09:04:29;5.97;;;4.50;;
9773;SDS011;4926;42.670;23.316;2023-04-29T09:07:05;8.30;;;4.80;;
9773;SDS011;4926;42.670;23.316;2023-04-29T09:09:35;7.00;;;4.95;;
9773;SDS011;4926;42.670;23.316;2023-04-29T09:12:05;6.47;;;4.65;;
9773;SDS011;4926;42.670;23.316;2023-04-29T09:14:33;7.55;;;4.72;;
9773;SDS011;4926;42.670;23.316;2023-04-29T09:20:24;6.57;;;4.80;;
9773;SDS011;4926;42.670;23.316;2023-04-29T09:22:53;7.32;;;4.70;;
9773;SDS011;4926;42.670;23.316;2023-04-29T09:25:21;6.75;;;4.70;;
9773;SDS011;4926;42.670;23.316;2023-04-29T09:27:48;7.70;;;4.60;;
9773;SDS011;4926;42.670;23.316;2023-04-29T09:30:17;6.10;;;4.78;;
9773;SDS011;4926;42.670;23.316;2023-04-29T09:32:45;6.63;;;5.10;;
9773;SDS011;4926;42.670;23.316;2023-04-29T09:35:28;8.32;;;5.53;;
9773;SDS011;4926;42.670;23.316;2023-04-29T09:38:07;8.57;;;5.57;;
9773;SDS011;4926;42.670;23.316;2023-04-29T09:40:36;8.30;;;5.57;;
9773;SDS011;4926;42.670;23.316;2023-04-29T09:43:10;10.90;;;5.30;;
9773;SDS011;4926;42.670;23.316;2023-04-29T09:45:42;8.93;;;5.80;;
9773;SDS011;4926;42.670;23.316;2023-04-29T09:48:10;8.52;;;5.38;;
9773;SDS011;4926;42.670;23.316;2023-04-29T09:50:37;8.50;;;6.18;;
9773;SDS011;4926;42.670;23.316;2023-04-29T09:53:09;7.10;;;5.85;;
9773;SDS011;4926;42.670;23.316;2023-04-29T09:55:37;8.23;;;5.78;;
9773;SDS011;4926;42.670;23.316;2023-04-29T09:58:26;9.50;;;6.18;;
9773;SDS011;4926;42.670;23.316;2023-04-29T10:00:55;15.68;;;6.25;;
9773;SDS011;4926;42.670;23.316;2023-04-29T10:03:28;10.05;;;6.43;;
9773;SDS011;4926;42.670;23.316;2023-04-29T10:05:57;9.10;;;6.47;;
9773;SDS011;4926;42.670;23.316;2023-04-29T10:08:28;10.05;;;6.15;;
9773;SDS011;4926;42.670;23.316;2023-04-29T10:10:55;10.93;;;6.68;;
9773;SDS011;4926;42.670;23.316;2023-04-29T10:13:25;9.80;;;6.65;;
9773;SDS011;4926;42.670;23.316;2023-04-29T10:15:56;8.38;;;6.47;;
9773;SDS011;4926;42.670;23.316;2023-04-29T10:18:29;8.00;;;5.88;;
9773;SDS011;4926;42.670;23.316;2023-04-29T10:21:02;8.48;;;5.68;;
9773;SDS011;4926;42.670;23.316;2023-04-29T10:23:32;9.40;;;6.25;;
9773;SDS011;4926;42.670;23.316;2023-04-29T10:26:02;7.28;;;5.10;;
9773;SDS011;4926;42.670;23.316;2023-04-29T10:28:29;8.98;;;4.80;;
9773;SDS011;4926;42.670;23.316;2023-04-29T10:31:00;8.52;;;4.93;;
9773;SDS011;4926;42.670;23.316;2023-04-29T10:35:59;6.68;;;4.72;;
9773;SDS011;4926;42.670;23.316;2023-04-29T10:38:27;6.97;;;4.70;;
9773;SDS011;4926;42.670;23.316;2023-04-29T10:41:01;8.32;;;5.03;;
9773;SDS011;4926;42.670;23.316;2023-04-29T10:43:32;7.93;;;4.45;;
9773;SDS011;4926;42.670;23.316;2023-04-29T10:46:19;5.80;;;4.40;;
9773;SDS011;4926;42.670;23.316;2023-04-29T10:48:48;7.65;;;4.40;;
9773;SDS011;4926;42.670;23.316;2023-04-29T10:54:13;8.45;;;5.03;;
9773;SDS011;4926;42.670;23.316;2023-04-29T10:56:42;10.18;;;5.05;;
9773;SDS011;4926;42.670;23.316;2023-04-29T10:59:14;10.05;;;5.28;;
9773;SDS011;4926;42.670;23.316;2023-04-29T11:01:50;10.60;;;3.90;;
9773;SDS011;4926;42.670;23.316;2023-04-29T11:04:18;6.93;;;4.10;;
9773;SDS011;4926;42.670;23.316;2023-04-29T11:06:51;10.75;;;3.60;;
9773;SDS011;4926;42.670;23.316;2023-04-29T11:09:19;4.53;;;3.17;;
9773;SDS011;4926;42.670;23.316;2023-04-29T11:11:47;5.90;;;3.08;;
9773;SDS011;4926;42.670;23.316;2023-04-29T11:14:26;6.28;;;3.05;;
9773;SDS011;4926;42.670;23.316;2023-04-29T11:16:58;5.60;;;3.50;;
9773;SDS011;4926;42.670;23.316;2023-04-29T11:19:29;9.65;;;3.50;;
9773;SDS011;4926;42.670;23.316;2023-04-29T11:22:07;5.55;;;3.00;;
9773;SDS011;4926;42.670;23.316;2023-04-29T11:24:36;5.10;;;2.92;;
9773;SDS011;4926;42.670;23.316;2023-04-29T11:27:14;5.10;;;3.10;;
9773;SDS011;4926;42.670;23.316;2023-04-29T11:29:42;5.93;;;2.80;;
9773;SDS011;4926;42.670;23.316;2023-04-29T11:32:12;3.50;;;2.45;;
9773;SDS011;4926;42.670;23.316;2023-04-29T11:34:41;6.43;;;2.65;;
9773;SDS011;4926;42.670;23.316;2023-04-29T11:37:08;7.35;;;3.30;;
9773;SDS011;4926;42.670;23.316;2023-04-29T11:39:35;4.00;;;2.35;;
9773;SDS011;4926;42.670;23.316;2023-04-29T11:42:04;4.18;;;2.15;;
9773;SDS011;4926;42.670;23.316;2023-04-29T11:44:33;3.60;;;2.38;;
9773;SDS011;4926;42.670;23.316;2023-04-29T11:47:04;5.55;;;2.67;;
9773;SDS011;4926;42.670;23.316;2023-04-29T11:49:35;2.30;;;2.10;;
9773;SDS011;4926;42.670;23.316;2023-04-29T11:52:02;5.20;;;3.60;;
9773;SDS011;4926;42.670;23.316;2023-04-29T11:54:29;5.32;;;2.58;;
9773;SDS011;4926;42.670;23.316;2023-04-29T11:56:58;3.47;;;2.28;;
9773;SDS011;4926;42.670;23.316;2023-04-29T11:59:28;4.47;;;2.47;;
9773;SDS011;4926;42.670;23.316;2023-04-29T12:01:56;8.38;;;3.00;;
9773;SDS011;4926;42.670;23.316;2023-04-29T12:04:24;2.55;;;2.22;;
9773;SDS011;4926;42.670;23.316;2023-04-29T12:06:57;3.90;;;2.50;;
9773;SDS011;4926;42.670;23.316;2023-04-29T12:09:24;5.90;;;2.50;;
9773;SDS011;4926;42.670;23.316;2023-04-29T12:11:52;3.75;;;2.40;;
9773;SDS011;4926;42.670;23.316;2023-04-29T12:14:20;4.05;;;2.20;;
9773;SDS011;4926;42.670;23.316;2023-04-29T12:16:47;7.93;;;3.30;;
9773;SDS011;4926;42.670;23.316;2023-04-29T12:19:14;7.55;;;4.13;;
9773;SDS011;4926;42.670;23.316;2023-04-29T12:21:47;8.00;;;2.88;;
9773;SDS011;4926;42.670;23.316;2023-04-29T12:24:19;5.10;;;3.60;;
9773;SDS011;4926;42.670;23.316;2023-04-29T12:26:49;4.78;;;3.35;;
9773;SDS011;4926;42.670;23.316;2023-04-29T12:29:19;5.35;;;3.35;;
9773;SDS011;4926;42.670;23.316;2023-04-29T12:31:47;4.93;;;2.92;;
9773;SDS011;4926;42.670;23.316;2023-04-29T12:34:23;3.72;;;2.47;;
9773;SDS011;4926;42.670;23.316;2023-04-29T12:36:50;3.50;;;2.33;;
9773;SDS011;4926;42.670;23.316;2023-04-29T12:39:21;10.55;;;6.32;;
9773;SDS011;4926;42.670;23.316;2023-04-29T12:41:53;7.18;;;4.22;;
9773;SDS011;4926;42.670;23.316;2023-04-29T12:44:21;4.13;;;2.85;;
9773;SDS011;4926;42.670;23.316;2023-04-29T12:46:48;4.43;;;2.75;;
9773;SDS011;4926;42.670;23.316;2023-04-29T12:49:16;8.35;;;3.20;;
9773;SDS011;4926;42.670;23.316;2023-04-29T12:51:44;7.85;;;2.83;;
9773;SDS011;4926;42.670;23.316;2023-04-29T12:54:11;5.55;;;3.00;;
9773;SDS011;4926;42.670;23.316;2023-04-29T12:56:39;4.82;;;2.95;;
9773;SDS011;4926;42.670;23.316;2023-04-29T12:59:06;3.90;;;2.47;;
9773;SDS011;4926;42.670;23.316;2023-04-29T13:01:33;3.58;;;2.60;;
9773;SDS011;4926;42.670;23.316;2023-04-29T13:04:00;4.40;;;3.20;;
9773;SDS011;4926;42.670;23.316;2023-04-29T13:06:32;5.03;;;2.60;;
9773;SDS011;4926;42.670;23.316;2023-04-29T13:09:03;4.10;;;2.42;;
9773;SDS011;4926;42.670;23.316;2023-04-29T13:11:30;5.85;;;2.72;;
9773;SDS011;4926;42.670;23.316;2023-04-29T13:14:05;4.10;;;2.58;;
9773;SDS011;4926;42.670;23.316;2023-04-29T13:16:32;3.83;;;2.10;;
9773;SDS011;4926;42.670;23.316;2023-04-29T13:18:58;8.15;;;2.60;;
9773;SDS011;4926;42.670;23.316;2023-04-29T13:21:28;4.72;;;2.50;;
9773;SDS011;4926;42.670;23.316;2023-04-29T13:23:57;3.20;;;2.10;;
9773;SDS011;4926;42.670;23.316;2023-04-29T13:26:26;3.20;;;2.20;;
9773;SDS011;4926;42.670;23.316;2023-04-29T13:28:53;3.25;;;2.03;;
9773;SDS011;4926;42.670;23.316;2023-04-29T13:31:21;2.63;;;1.80;;
9773;SDS011;4926;42.670;23.316;2023-04-29T13:33:48;3.00;;;1.75;;
9773;SDS011;4926;42.670;23.316;2023-04-29T13:36:15;4.03;;;1.90;;
9773;SDS011;4926;42.670;23.316;2023-04-29T13:38:41;3.33;;;2.00;;
9773;SDS011;4926;42.670;23.316;2023-04-29T13:41:08;2.13;;;1.92;;
9773;SDS011;4926;42.670;23.316;2023-04-29T13:43:35;2.85;;;2.17;;
9773;SDS011;4926;42.670;23.316;2023-04-29T13:46:01;4.75;;;2.45;;
9773;SDS011;4926;42.670;23.316;2023-04-29T13:48:29;2.67;;;1.75;;
9773;SDS011;4926;42.670;23.316;2023-04-29T13:50:56;3.08;;;2.03;;
9773;SDS011;4926;42.670;23.316;2023-04-29T13:53:23;5.32;;;2.40;;
9773;SDS011;4926;42.670;23.316;2023-04-29T13:55:50;4.40;;;2.05;;
9773;SDS011;4926;42.670;23.316;2023-04-29T13:58:20;2.25;;;1.90;;
9773;SDS011;4926;42.670;23.316;2023-04-29T14:00:46;2.55;;;1.90;;
9773;SDS011;4926;42.670;23.316;2023-04-29T14:03:15;2.80;;;1.83;;
9773;SDS011;4926;42.670;23.316;2023-04-29T14:05:44;2.85;;;1.88;;
9773;SDS011;4926;42.670;23.316;2023-04-29T14:08:10;4.63;;;2.15;;
9773;SDS011;4926;42.670;23.316;2023-04-29T14:10:38;2.90;;;2.03;;
9773;SDS011;4926;42.670;23.316;2023-04-29T14:13:05;2.20;;;2.00;;
9773;SDS011;4926;42.670;23.316;2023-04-29T14:15:32;3.20;;;2.08;;
9773;SDS011;4926;42.670;23.316;2023-04-29T14:17:58;3.17;;;2.30;;
9773;SDS011;4926;42.670;23.316;2023-04-29T14:20:28;2.35;;;1.92;;
9773;SDS011;4926;42.670;23.316;2023-04-29T14:22:58;4.13;;;2.10;;
9773;SDS011;4926;42.670;23.316;2023-04-29T14:25:25;2.92;;;2.20;;
9773;SDS011;4926;42.670;23.316;2023-04-29T14:27:55;3.13;;;2.20;;
9773;SDS011;4926;42.670;23.316;2023-04-29T14:30:22;4.03;;;2.00;;
9773;SDS011;4926;42.670;23.316;2023-04-29T14:32:48;4.03;;;2.30;;
9773;SDS011;4926;42.670;23.316;2023-04-29T14:35:18;3.13;;;2.10;;
9773;SDS011;4926;42.670;23.316;2023-04-29T14:37:45;3.67;;;2.47;;
9773;SDS011;4926;42.670;23.316;2023-04-29T14:40:13;3.05;;;2.00;;
9773;SDS011;4926;42.670;23.316;2023-04-29T14:42:40;5.50;;;2.28;;
9773;SDS011;4926;42.670;23.316;2023-04-29T14:45:07;3.17;;;2.72;;
9773;SDS011;4926;42.670;23.316;2023-04-29T14:47:34;5.28;;;2.50;;
9773;SDS011;4926;42.670;23.316;2023-04-29T14:50:01;4.07;;;2.40;;
9773;SDS011;4926;42.670;23.316;2023-04-29T14:52:28;3.78;;;2.88;;
9773;SDS011;4926;42.670;23.316;2023-04-29T14:54:54;4.38;;;3.00;;
9773;SDS011;4926;42.670;23.316;2023-04-29T14:57:23;3.63;;;2.88;;
9773;SDS011;4926;42.670;23.316;2023-04-29T14:59:49;3.22;;;2.50;;
9773;SDS011;4926;42.670;23.316;2023-04-29T15:02:22;6.15;;;3.70;;
9773;SDS011;4926;42.670;23.316;2023-04-29T15:04:49;5.50;;;3.30;;
9773;SDS011;4926;42.670;23.316;2023-04-29T15:07:17;6.85;;;3.08;;
9773;SDS011;4926;42.670;23.316;2023-04-29T15:09:45;7.90;;;3.10;;
9773;SDS011;4926;42.670;23.316;2023-04-29T15:12:12;6.55;;;3.28;;
9773;SDS011;4926;42.670;23.316;2023-04-29T15:14:42;3.60;;;2.75;;
9773;SDS011;4926;42.670;23.316;2023-04-29T15:17:09;7.25;;;3.47;;